Time;durP1;ratioP1;P1;durP2;ratioP2;P2;SDS_P1;SDS_P2;PMS_P1;PMS_P2;Temp;Humidity;BMP_temperature;BMP_pressure;BME280_temperature;BME280_humidity;BME280_pressure;Samples;Min_cycle;Max_cycle;Signal;HPM_P1;HPM_P2
2024/04/10 00:02:18;;;;;;;;;1.75;1.00;;;;;10.17;59.78;101960.19;5500949;25;43828;-52
2024/04/10 00:04:47;;;;;;;;;6.75;3.00;;;;;10.18;60.33;101951.47;5495514;25;44409;-52
2024/04/10 00:07:13;;;;;;;;;1.00;1.00;;;;;10.17;59.75;101961.94;5499142;25;44049;-55
2024/04/10 00:09:39;;;;;;;;;3.50;1.75;;;;;10.18;59.64;101956.69;5465791;25;44107;-55
2024/04/10 00:12:04;;;;;;;;;2.00;1.00;;;;;10.16;60.16;101963.66;5474431;25;43985;-55
2024/04/10 00:14:32;;;;;;;;;6.00;2.00;;;;;10.15;60.05;101967.16;5498136;25;43948;-54
2024/04/10 00:16:57;;;;;;;;;2.25;1.75;;;;;10.15;60.69;101972.41;5498232;25;44324;-51
2024/04/10 00:19:23;;;;;;;;;2.00;1.75;;;;;10.16;60.99;101971.50;5499669;25;47341;-51
2024/04/10 00:21:51;;;;;;;;;2.00;1.25;;;;;10.14;60.49;101975.03;5498225;25;64943;-55
2024/04/10 00:24:16;;;;;;;;;2.00;1.00;;;;;10.13;60.81;101978.50;5497152;25;43855;-54
2024/04/10 00:26:41;;;;;;;;;1.00;1.00;;;;;10.12;60.96;101979.41;5498927;25;73665;-55
2024/04/10 00:29:07;;;;;;;;;5.00;2.00;;;;;10.11;60.57;101978.53;5505866;25;69686;-53
2024/04/10 00:31:32;;;;;;;;;1.25;0.75;;;;;10.09;60.47;101982.88;5511998;25;49460;-52
2024/04/10 00:33:57;;;;;;;;;0.50;0.50;;;;;10.08;61.52;101986.38;5500537;25;68967;-50
2024/04/10 00:36:23;;;;;;;;;2.50;0.25;;;;;10.07;61.34;101977.69;5498786;25;74860;-54
2024/04/10 00:38:49;;;;;;;;;3.25;0.50;;;;;10.07;61.25;101974.19;5500773;25;43724;-53
2024/04/10 00:41:14;;;;;;;;;5.00;2.00;;;;;10.05;61.44;101974.19;5465624;25;69103;-53
2024/04/10 00:43:40;;;;;;;;;3.00;0.00;;;;;10.06;61.18;101985.53;5511063;25;44174;-55
2024/04/10 00:46:15;;;;;;;;;3.00;1.00;;;;;10.07;61.70;101979.41;5504731;25;43956;-54
2024/04/10 00:48:42;;;;;;;;;4.00;2.00;;;;;10.05;61.73;101968.94;5467316;25;44325;-55
2024/04/10 00:51:10;;;;;;;;;5.50;2.00;;;;;10.03;61.82;101969.84;5503512;25;43944;-54
2024/04/10 00:53:35;;;;;;;;;1.00;1.00;;;;;10.00;61.12;101970.72;5464712;25;44819;-54
2024/04/10 00:56:03;;;;;;;;;3.00;1.00;;;;;9.98;62.34;101964.63;5464818;25;75172;-55
2024/04/10 00:58:31;;;;;;;;;8.25;2.00;;;;;9.98;62.43;101961.16;5500066;25;43884;-53
2024/04/10 01:00:56;;;;;;;;;3.50;1.00;;;;;9.96;61.81;101969.00;5503844;25;43778;-55
2024/04/10 01:03:22;;;;;;;;;2.75;1.75;;;;;9.96;62.45;101970.75;5496512;25;71819;-53
2024/04/10 01:06:03;;;;;;;;;5.00;1.00;;;;;9.96;62.29;101974.22;5503293;25;44732;-53
2024/04/10 01:08:29;;;;;;;;;2.50;1.00;;;;;9.95;61.84;101966.38;5502598;25;44709;-48
2024/04/10 01:10:56;;;;;;;;;4.75;1.00;;;;;9.94;61.80;101969.91;5506497;25;43801;-52
2024/04/10 01:13:22;;;;;;;;;3.00;2.00;;;;;9.93;62.80;101966.38;5469320;25;44059;-54
2024/04/10 01:15:48;;;;;;;;;1.50;1.00;;;;;9.93;62.25;101971.63;5511905;25;45841;-52
2024/04/10 01:18:13;;;;;;;;;3.25;1.00;;;;;9.89;63.07;101972.53;5502397;25;63684;-53
2024/04/10 01:20:38;;;;;;;;;4.00;2.00;;;;;9.90;62.48;101976.88;5439483;25;66806;-55
2024/04/10 01:23:05;;;;;;;;;5.25;1.75;;;;;9.89;62.82;101981.22;5501957;25;72044;-56
2024/04/10 01:25:30;;;;;;;;;1.00;0.00;;;;;9.87;62.30;101984.72;5493686;25;45089;-54
2024/04/10 01:27:56;;;;;;;;;3.00;1.00;;;;;9.85;62.68;101987.34;5503353;25;46642;-54
2024/04/10 01:30:21;;;;;;;;;2.75;0.75;;;;;9.84;62.18;101983.00;5470246;25;44013;-54
2024/04/10 01:32:46;;;;;;;;;3.50;1.50;;;;;9.83;62.54;101978.66;5468108;25;63863;-51
2024/04/10 01:35:12;;;;;;;;;4.00;0.50;;;;;9.84;63.21;101980.41;5503606;25;75057;-52
2024/04/10 01:37:37;;;;;;;;;1.00;0.50;;;;;9.81;63.83;101990.88;5497704;25;72823;-51
2024/04/10 01:40:03;;;;;;;;;1.50;1.00;;;;;9.81;63.92;102006.53;5503735;25;43845;-51
2024/04/10 01:42:28;;;;;;;;;3.00;0.25;;;;;9.78;63.19;102003.94;5501315;25;43833;-54
2024/04/10 01:44:55;;;;;;;;;1.00;1.00;;;;;9.79;63.50;102012.63;5467941;25;68306;-52
2024/04/10 01:47:20;;;;;;;;;4.25;1.00;;;;;9.79;63.81;102017.88;5482809;25;43945;-51
2024/04/10 01:49:46;;;;;;;;;3.00;0.00;;;;;9.78;64.01;102022.22;5501772;25;43721;-51
2024/04/10 01:52:11;;;;;;;;;2.75;1.50;;;;;9.79;63.86;102036.16;5498877;25;72989;-52
2024/04/10 01:54:36;;;;;;;;;4.25;1.75;;;;;9.77;62.84;102035.31;5468488;25;69897;-54
2024/04/10 01:57:02;;;;;;;;;2.75;0.25;;;;;9.77;64.29;102040.53;5500152;25;70848;-51
2024/04/10 01:59:27;;;;;;;;;1.75;1.00;;;;;9.76;63.07;102044.03;5492832;25;44416;-53
2024/04/10 02:01:52;;;;;;;;;1.50;1.25;;;;;9.74;63.44;102046.66;5495101;25;68503;-53
2024/04/10 02:04:18;;;;;;;;;1.75;1.00;;;;;9.75;63.14;102047.50;5511695;25;75190;-56
2024/04/10 02:06:43;;;;;;;;;3.50;1.00;;;;;9.73;64.08;102060.59;5515753;25;72685;-54
2024/04/10 02:09:08;;;;;;;;;1.50;0.00;;;;;9.71;64.12;102051.03;5469659;25;66925;-55
2024/04/10 02:11:38;;;;;;;;;2.50;2.00;;;;;9.70;64.37;102057.97;5517712;25;64128;-54
2024/04/10 02:14:03;;;;;;;;;11.00;1.00;;;;;9.70;63.47;102060.59;5502662;25;44818;-54
2024/04/10 02:16:29;;;;;;;;;0.25;0.25;;;;;9.69;64.03;102057.09;5502925;25;43787;-52
2024/04/10 02:18:55;;;;;;;;;1.25;1.00;;;;;9.68;64.56;102055.38;5504417;25;44494;-53
2024/04/10 02:21:22;;;;;;;;;2.25;1.25;;;;;9.67;64.71;102060.63;5483974;25;48414;-55
2024/04/10 02:23:47;;;;;;;;;4.00;1.25;;;;;9.71;64.32;102071.94;5499499;25;45794;-55
2024/04/10 02:26:13;;;;;;;;;10.25;1.50;;;;;9.69;64.50;102072.78;5509086;25;43949;-51
2024/04/10 02:28:39;;;;;;;;;0.00;0.00;;;;;9.69;64.55;102069.31;5505911;25;43885;-55
2024/04/10 02:31:04;;;;;;;;;1.75;1.00;;;;;9.66;64.82;102070.19;5469292;25;44835;-56
2024/04/10 02:33:34;;;;;;;;;4.25;1.50;;;;;9.65;64.93;102068.47;5501777;25;45706;-56
2024/04/10 02:36:00;;;;;;;;;5.25;1.00;;;;;9.66;64.87;102078.03;5486173;25;44453;-55
2024/04/10 02:38:29;;;;;;;;;4.25;1.75;;;;;9.67;65.50;102081.53;5501259;25;44066;-55
2024/04/10 02:40:54;;;;;;;;;3.75;1.00;;;;;9.66;65.16;102083.25;5503705;25;43793;-53
2024/04/10 02:43:20;;;;;;;;;1.00;1.00;;;;;9.64;65.46;102081.53;5500853;25;44908;-55
2024/04/10 02:46:02;;;;;;;;;1.50;1.00;;;;;9.61;65.07;102077.16;5508489;25;44442;-55
2024/04/10 02:48:28;;;;;;;;;4.00;1.00;;;;;9.60;64.85;102082.41;5498222;25;44143;-55
2024/04/10 02:50:54;;;;;;;;;1.00;1.00;;;;;9.58;64.84;102079.78;5501279;25;43813;-54
2024/04/10 02:53:20;;;;;;;;;1.50;1.00;;;;;9.59;64.61;102078.91;5506909;25;44169;-50
2024/04/10 02:55:46;;;;;;;;;1.50;0.75;;;;;9.60;66.20;102079.78;5507432;25;43897;-54
2024/04/10 02:58:12;;;;;;;;;4.50;1.75;;;;;9.58;65.51;102081.50;5505906;25;43931;-54
2024/04/10 03:00:48;;;;;;;;;1.00;0.75;;;;;9.58;66.10;102076.28;5498469;25;43952;-53
2024/04/10 03:03:14;;;;;;;;;2.00;0.25;;;;;9.59;65.33;102083.25;5491293;25;44967;-54
2024/04/10 03:05:40;;;;;;;;;2.00;1.50;;;;;9.59;64.77;102085.88;5510608;25;43859;-55
2024/04/10 03:08:05;;;;;;;;;3.00;1.00;;;;;9.52;66.23;102087.63;5504149;25;44078;-55
2024/04/10 03:10:31;;;;;;;;;3.00;0.25;;;;;9.48;65.29;102091.13;5499296;25;43998;-55
2024/04/10 03:12:57;;;;;;;;;5.00;1.00;;;;;9.44;65.95;102092.88;5467730;25;43843;-50
2024/04/10 03:15:22;;;;;;;;;2.00;0.50;;;;;9.43;65.26;102095.47;5508954;25;43761;-53
2024/04/10 03:17:47;;;;;;;;;1.50;1.00;;;;;9.42;65.94;102096.31;5502867;25;69322;-53
2024/04/10 03:20:13;;;;;;;;;2.00;1.00;;;;;9.41;65.70;102095.47;5481915;25;70718;-54
2024/04/10 03:22:39;;;;;;;;;1.00;0.00;;;;;9.42;66.94;102096.31;5477513;25;44772;-54
2024/04/10 03:25:05;;;;;;;;;2.50;1.00;;;;;9.41;65.80;102099.84;5497898;25;44027;-53
2024/04/10 03:27:31;;;;;;;;;1.00;1.00;;;;;9.41;66.26;102099.84;5507138;25;43973;-52
2024/04/10 03:29:56;;;;;;;;;2.25;0.75;;;;;9.41;66.52;102113.75;5498460;25;44090;-53
2024/04/10 03:32:21;;;;;;;;;3.75;0.00;;;;;9.39;65.83;102110.28;5500519;25;44825;-54
2024/04/10 03:34:47;;;;;;;;;0.00;0.00;;;;;9.40;65.93;102119.88;5502970;25;43973;-53
2024/04/10 03:37:13;;;;;;;;;9.00;0.00;;;;;9.36;66.54;102110.28;5480588;25;45129;-55
2024/04/10 03:39:38;;;;;;;;;0.75;0.75;;;;;9.32;67.52;102109.41;5503159;25;43873;-53
2024/04/10 03:42:04;;;;;;;;;1.50;1.00;;;;;9.32;66.15;102109.41;5517825;25;73789;-51
2024/04/10 03:44:29;;;;;;;;;1.00;0.00;;;;;9.27;66.53;102108.53;5501257;25;44053;-51
2024/04/10 03:46:54;;;;;;;;;1.50;0.00;;;;;9.28;67.02;102112.03;5496527;25;66955;-54
2024/04/10 03:49:20;;;;;;;;;1.75;1.25;;;;;9.25;66.65;102123.34;5498496;25;71762;-53
2024/04/10 03:51:45;;;;;;;;;1.75;0.00;;;;;9.24;67.30;102125.94;5509333;25;74148;-52
2024/04/10 03:54:11;;;;;;;;;1.75;1.00;;;;;9.25;67.19;102135.53;5472604;25;43948;-51
2024/04/10 03:56:36;;;;;;;;;2.25;0.25;;;;;9.25;67.80;102138.16;5508738;25;43747;-54
2024/04/10 03:59:01;;;;;;;;;2.00;0.00;;;;;9.25;66.47;102133.78;5513815;25;70797;-53
2024/04/10 04:01:27;;;;;;;;;1.75;1.00;;;;;9.24;67.99;102137.28;5492533;25;48675;-50
2024/04/10 04:03:52;;;;;;;;;4.00;1.00;;;;;9.22;67.14;102135.53;5464948;25;43955;-51
2024/04/10 04:06:18;;;;;;;;;0.50;0.25;;;;;9.20;68.12;102145.97;5500723;25;43854;-54
2024/04/10 04:08:43;;;;;;;;;1.75;1.00;;;;;9.16;68.46;102145.97;5499620;25;43983;-51
2024/04/10 04:11:08;;;;;;;;;2.00;0.75;;;;;9.14;68.20;102148.56;5519962;25;44054;-53
2024/04/10 04:13:34;;;;;;;;;3.50;2.00;;;;;9.12;67.79;102151.19;5501349;25;66991;-54
2024/04/10 04:15:59;;;;;;;;;2.50;1.00;;;;;9.10;67.44;102155.53;5467548;25;44338;-53
2024/04/10 04:18:25;;;;;;;;;3.50;2.00;;;;;9.06;68.16;102161.59;5498597;25;44031;-51
2024/04/10 04:20:50;;;;;;;;;8.00;1.50;;;;;9.05;68.19;102162.47;5510274;25;51620;-52
2024/04/10 04:23:16;;;;;;;;;4.25;1.50;;;;;9.04;68.34;102165.09;5497358;25;43893;-55
2024/04/10 04:25:42;;;;;;;;;4.50;2.25;;;;;9.00;69.27;102173.78;5503848;25;43954;-50
2024/04/10 04:28:07;;;;;;;;;2.50;1.00;;;;;8.99;69.39;102180.72;5497422;25;43946;-53
2024/04/10 04:30:32;;;;;;;;;0.75;0.75;;;;;8.99;68.10;102175.50;5459815;25;43896;-54
2024/04/10 04:32:59;;;;;;;;;3.00;1.00;;;;;8.96;68.60;102185.06;5498918;25;73011;-54
2024/04/10 04:35:25;;;;;;;;;4.25;2.00;;;;;8.96;68.95;102180.75;5476359;25;44095;-49
2024/04/10 04:37:57;;;;;;;;;2.25;1.00;;;;;8.98;68.79;102186.84;5502446;25;43923;-54
2024/04/10 04:40:27;;;;;;;;;3.75;1.25;;;;;8.98;69.88;102189.44;5501550;25;46127;-55
2024/04/10 04:42:52;;;;;;;;;3.00;1.00;;;;;8.98;69.01;102189.44;5525491;25;44457;-53
2024/04/10 04:45:18;;;;;;;;;2.75;1.00;;;;;8.98;70.10;102199.91;5501177;25;67120;-54
2024/04/10 04:47:43;;;;;;;;;8.25;1.50;;;;;8.98;69.09;102189.44;5485769;25;44342;-53
2024/04/10 04:50:09;;;;;;;;;0.00;0.00;;;;;8.99;69.88;102190.31;5501354;25;74158;-55
2024/04/10 04:52:34;;;;;;;;;3.25;0.00;;;;;8.99;69.26;102191.19;5502965;25;43976;-52
2024/04/10 04:55:00;;;;;;;;;2.75;1.00;;;;;8.97;69.55;102194.66;5478467;25;62553;-54
2024/04/10 04:57:25;;;;;;;;;3.50;1.50;;;;;8.98;69.06;102199.00;5470431;25;44023;-54
2024/04/10 04:59:50;;;;;;;;;2.75;1.00;;;;;8.97;69.97;102195.53;5488669;25;44829;-52
2024/04/10 05:02:16;;;;;;;;;3.00;1.00;;;;;8.97;69.11;102198.13;5501134;25;70508;-54
2024/04/10 05:05:02;;;;;;;;;7.25;2.00;;;;;8.96;69.56;102200.75;5492140;25;43897;-54
2024/04/10 05:07:27;;;;;;;;;4.25;2.00;;;;;8.96;70.56;102208.56;5503420;25;43934;-54
2024/04/10 05:09:53;;;;;;;;;2.00;1.00;;;;;8.97;70.66;102205.09;5502620;25;57127;-50
2024/04/10 05:12:18;;;;;;;;;4.50;1.50;;;;;8.99;69.60;102219.91;5495487;25;43810;-51
2024/04/10 05:14:53;;;;;;;;;6.75;2.00;;;;;9.01;70.12;102218.19;5491790;25;47806;-51
2024/04/10 05:17:19;;;;;;;;;4.75;2.00;;;;;9.01;70.75;102214.69;5502601;25;43980;-53
2024/04/10 05:19:44;;;;;;;;;4.50;2.00;;;;;9.02;70.23;102219.06;5502619;25;43992;-52
2024/04/10 05:22:10;;;;;;;;;3.00;1.50;;;;;9.03;70.19;102231.22;5500979;25;64287;-51
2024/04/10 05:24:35;;;;;;;;;4.00;2.00;;;;;9.04;71.11;102230.38;5502865;25;43950;-53
2024/04/10 05:27:03;;;;;;;;;4.50;2.00;;;;;9.05;70.61;102233.00;5469454;25;70722;-53
2024/04/10 05:29:28;;;;;;;;;3.00;1.50;;;;;9.07;70.23;102240.84;5502440;25;45502;-50
2024/04/10 05:31:54;;;;;;;;;8.50;1.75;;;;;9.09;70.10;102239.97;5496533;25;43808;-52
2024/04/10 05:34:19;;;;;;;;;10.25;2.25;;;;;9.10;70.93;102251.28;5470051;25;52388;-54
2024/04/10 05:36:46;;;;;;;;;3.50;1.25;;;;;9.09;71.06;102241.72;5501374;25;70445;-55
2024/04/10 05:39:19;;;;;;;;;3.00;1.00;;;;;9.16;70.41;102261.75;5500673;25;45725;-50
2024/04/10 05:41:45;;;;;;;;;2.50;1.00;;;;;9.18;70.15;102256.53;5503737;25;44112;-50
2024/04/10 05:44:11;;;;;;;;;4.50;2.00;;;;;9.22;70.45;102261.75;5469497;25;44003;-50
2024/04/10 05:46:36;;;;;;;;;3.25;1.75;;;;;9.25;70.00;102263.53;5469624;25;44561;-54
2024/04/10 05:49:02;;;;;;;;;2.00;1.00;;;;;9.30;69.85;102267.91;5466937;25;75073;-62
2024/04/10 05:51:27;;;;;;;;;2.75;1.75;;;;;9.35;70.58;102275.75;5502207;25;43978;-59
2024/04/10 05:53:52;;;;;;;;;3.50;1.25;;;;;9.41;70.29;102286.22;5503751;25;47599;-57
2024/04/10 05:56:18;;;;;;;;;11.50;2.75;;;;;9.48;69.88;102289.72;5500062;25;72860;-60
2024/04/10 05:58:43;;;;;;;;;2.75;1.75;;;;;9.53;69.66;102297.59;5455092;25;44057;-50
2024/04/10 06:01:09;;;;;;;;;1.75;1.50;;;;;9.59;69.95;102300.19;5503185;25;44022;-51
2024/04/10 06:03:34;;;;;;;;;7.25;2.00;;;;;9.64;70.78;102298.47;5512617;25;43947;-56
2024/04/10 06:06:12;;;;;;;;;3.25;1.00;;;;;9.70;69.80;102301.06;5501218;25;72521;-55
2024/04/10 06:08:41;;;;;;;;;6.50;2.00;;;;;9.76;69.73;102295.00;5502161;25;45711;-53
2024/04/10 06:11:06;;;;;;;;;2.25;1.00;;;;;9.79;69.19;102301.13;5502252;25;43987;-54
2024/04/10 06:13:32;;;;;;;;;8.75;1.75;;;;;9.85;70.10;102308.09;5501158;25;64274;-56
2024/04/10 06:16:01;;;;;;;;;13.25;6.25;;;;;9.90;69.22;102311.59;5501028;25;44143;-55
2024/04/10 06:18:26;;;;;;;;;2.50;1.00;;;;;9.93;69.19;102301.09;5502444;25;45004;-59
2024/04/10 06:21:02;;;;;;;;;4.50;1.75;;;;;9.94;68.68;102304.63;5502338;25;43924;-61
2024/04/10 06:23:29;;;;;;;;;3.75;2.50;;;;;9.98;69.07;102311.59;5502244;25;43843;-57
2024/04/10 06:25:54;;;;;;;;;3.25;2.00;;;;;10.01;69.38;102315.06;5469983;25;44144;-56
2024/04/10 06:28:20;;;;;;;;;3.00;2.00;;;;;10.06;69.41;102320.31;5499364;25;71065;-55
2024/04/10 06:30:45;;;;;;;;;2.50;2.00;;;;;10.07;68.52;102307.25;5501588;25;43961;-54
2024/04/10 06:33:13;;;;;;;;;6.25;1.25;;;;;10.14;68.60;102320.31;5502594;25;44003;-53
2024/04/10 06:35:38;;;;;;;;;4.00;2.00;;;;;10.18;69.21;102314.19;5502273;25;43800;-53
2024/04/10 06:38:04;;;;;;;;;4.75;2.00;;;;;10.22;68.90;102324.69;5501812;25;66316;-60
2024/04/10 06:40:30;;;;;;;;;6.00;3.50;;;;;10.25;68.42;102324.69;5470207;25;43837;-56
2024/04/10 06:42:55;;;;;;;;;4.00;1.50;;;;;10.33;69.05;102327.31;5469872;25;44059;-59
2024/04/10 06:45:21;;;;;;;;;4.00;2.00;;;;;10.36;68.60;102327.34;5502752;25;44426;-55
2024/04/10 06:47:46;;;;;;;;;3.25;1.00;;;;;10.39;68.33;102344.75;5501408;25;44584;-59
2024/04/10 06:50:12;;;;;;;;;5.75;1.25;;;;;10.43;68.16;102342.16;5477755;25;43956;-59
2024/04/10 06:52:38;;;;;;;;;4.25;1.00;;;;;10.47;68.52;102350.00;5434612;25;43717;-57
2024/04/10 06:55:05;;;;;;;;;2.75;2.00;;;;;10.50;67.75;102356.13;5500556;25;43919;-55
2024/04/10 06:57:31;;;;;;;;;8.50;2.00;;;;;10.54;67.85;102352.63;5500488;25;44866;-62
2024/04/10 06:59:58;;;;;;;;;1.00;1.00;;;;;10.59;68.54;102358.72;5501559;25;43817;-55
2024/04/10 07:02:24;;;;;;;;;4.25;2.00;;;;;10.61;67.76;102366.56;5470273;25;43833;-61
2024/04/10 07:04:49;;;;;;;;;3.50;1.25;;;;;10.62;67.71;102357.84;5502433;25;43891;-61
2024/04/10 07:07:15;;;;;;;;;5.50;2.75;;;;;10.65;68.05;102365.69;5470058;25;46750;-60
2024/04/10 07:09:40;;;;;;;;;3.25;2.50;;;;;10.67;66.97;102371.78;5500630;25;62513;-56
2024/04/10 07:12:06;;;;;;;;;3.25;1.00;;;;;10.69;67.50;102371.78;5472306;25;59787;-54
2024/04/10 07:14:34;;;;;;;;;6.25;2.25;;;;;10.70;67.95;102363.94;5502457;25;43975;-55
2024/04/10 07:17:00;;;;;;;;;2.25;2.25;;;;;10.71;67.01;102360.47;5469762;25;46196;-56
2024/04/10 07:19:26;;;;;;;;;3.25;2.00;;;;;10.72;67.38;102369.19;5469979;25;43783;-59
2024/04/10 07:21:52;;;;;;;;;4.75;2.00;;;;;10.73;67.42;102376.16;5470723;25;43923;-59
2024/04/10 07:24:17;;;;;;;;;5.75;4.00;;;;;10.74;67.56;102381.38;5502024;25;43879;-60
2024/04/10 07:26:42;;;;;;;;;7.75;5.00;;;;;10.82;67.76;102374.41;5502045;25;45498;-59
2024/04/10 07:29:08;;;;;;;;;3.50;2.00;;;;;10.87;67.71;102378.75;5500691;25;62935;-61
2024/04/10 07:31:33;;;;;;;;;5.25;2.75;;;;;10.91;67.28;102376.13;5480842;25;43911;-61
2024/04/10 07:33:59;;;;;;;;;5.25;3.00;;;;;10.96;67.46;102382.25;5487933;25;43991;-60
2024/04/10 07:36:25;;;;;;;;;8.00;2.50;;;;;10.97;67.40;102378.72;5469030;25;44749;-61
2024/04/10 07:38:53;;;;;;;;;13.00;9.50;;;;;11.02;67.35;102384.81;5465043;25;44473;-61
2024/04/10 07:41:19;;;;;;;;;6.50;5.00;;;;;11.06;67.99;102388.31;5451669;25;43896;-60
2024/04/10 07:43:44;;;;;;;;;6.50;4.25;;;;;11.09;67.75;102390.06;5469048;25;44066;-60
2024/04/10 07:46:14;;;;;;;;;2.50;2.00;;;;;11.07;67.39;102384.84;5501400;25;43869;-61
2024/04/10 07:48:40;;;;;;;;;4.75;2.00;;;;;11.09;67.44;102379.59;5502004;25;44014;-61
2024/04/10 07:51:08;;;;;;;;;9.00;2.75;;;;;11.13;67.01;102382.19;5477613;25;43956;-61
2024/04/10 07:53:35;;;;;;;;;2.00;1.25;;;;;11.16;67.12;102379.56;5500338;25;44001;-62
2024/04/10 07:56:01;;;;;;;;;6.50;3.25;;;;;11.21;67.42;102379.56;5501679;25;45856;-62
2024/04/10 07:58:27;;;;;;;;;3.00;3.00;;;;;11.27;66.92;102382.13;5500129;25;44434;-62
2024/04/10 08:00:56;;;;;;;;;11.00;4.00;;;;;11.37;66.34;102377.75;5485886;25;43811;-62
2024/04/10 08:03:22;;;;;;;;;4.00;2.00;;;;;11.45;66.37;102367.22;5454480;25;43920;-61
2024/04/10 08:05:51;;;;;;;;;8.00;3.00;;;;;11.56;66.13;102370.66;5469154;25;43868;-61
2024/04/10 08:08:17;;;;;;;;;7.75;3.00;;;;;11.62;66.10;102378.50;5502168;25;43894;-58
2024/04/10 08:10:42;;;;;;;;;6.75;3.25;;;;;11.68;66.41;102377.59;5471436;25;43940;-59
2024/04/10 08:13:08;;;;;;;;;6.25;4.25;;;;;11.71;65.81;102369.72;5497042;25;71568;-59
2024/04/10 08:15:33;;;;;;;;;4.50;4.00;;;;;11.78;65.87;102377.53;5503561;25;75195;-59
2024/04/10 08:17:58;;;;;;;;;4.25;3.25;;;;;11.85;65.18;102378.38;5472197;25;43757;-59
2024/04/10 08:20:24;;;;;;;;;6.50;3.00;;;;;11.90;65.32;102376.63;5504019;25;68023;-61
2024/04/10 08:22:49;;;;;;;;;4.50;3.75;;;;;11.97;65.07;102380.09;5442155;25;43925;-60
2024/04/10 08:25:15;;;;;;;;;6.25;3.00;;;;;12.03;64.99;102363.44;5504987;25;51380;-59
2024/04/10 08:27:40;;;;;;;;;6.75;3.75;;;;;12.11;65.01;102366.88;5482375;25;43780;-60
2024/04/10 08:30:06;;;;;;;;;4.00;2.25;;;;;12.19;64.76;102366.84;5491146;25;43833;-60
2024/04/10 08:32:34;;;;;;;;;5.50;2.25;;;;;12.23;64.25;102368.53;5497844;25;44055;-59
2024/04/10 08:34:59;;;;;;;;;3.25;2.50;;;;;12.29;64.48;102376.38;5441529;25;45301;-59
2024/04/10 08:37:24;;;;;;;;;5.25;3.25;;;;;12.37;64.85;102379.81;5503317;25;71806;-57
2024/04/10 08:39:50;;;;;;;;;9.50;3.00;;;;;12.43;63.64;102382.38;5471678;25;55281;-59
2024/04/10 08:42:18;;;;;;;;;7.50;2.50;;;;;12.48;63.62;102377.09;5502051;25;44861;-59
2024/04/10 08:44:43;;;;;;;;;5.00;3.00;;;;;12.57;63.69;102379.66;5498194;25;48671;-57
2024/04/10 08:47:10;;;;;;;;;5.00;3.00;;;;;12.61;62.76;102386.63;5472082;25;66577;-57
2024/04/10 08:49:38;;;;;;;;;5.25;2.50;;;;;12.62;62.45;102385.72;5460867;25;43804;-57
2024/04/10 08:52:04;;;;;;;;;4.75;4.25;;;;;12.63;62.52;102391.84;5471077;25;43768;-57
2024/04/10 08:54:29;;;;;;;;;5.00;3.25;;;;;12.67;62.11;102391.78;5504170;25;45720;-59
2024/04/10 08:56:55;;;;;;;;;6.00;4.00;;;;;12.77;61.94;102396.97;5466471;25;43990;-58
2024/04/10 08:59:21;;;;;;;;;3.75;1.00;;;;;12.86;61.28;102394.25;5498740;25;67285;-59
2024/04/10 09:01:46;;;;;;;;;2.50;2.00;;;;;12.95;60.76;102399.41;5497920;25;44276;-59
2024/04/10 09:04:13;;;;;;;;;2.00;2.00;;;;;13.06;60.86;102400.16;5494829;25;60389;-59
2024/04/10 09:06:38;;;;;;;;;3.00;1.00;;;;;13.23;59.25;102393.88;5504271;25;43994;-53
2024/04/10 09:09:06;;;;;;;;;3.00;0.50;;;;;13.35;58.38;102406.91;5503030;25;43863;-54
2024/04/10 09:11:31;;;;;;;;;2.00;0.00;;;;;13.42;57.80;102413.84;5470500;25;43766;-61
2024/04/10 09:14:07;;;;;;;;;3.00;1.00;;;;;13.44;56.79;102408.56;5501076;25;44207;-58
2024/04/10 09:16:33;;;;;;;;;2.00;0.00;;;;;13.40;56.50;102405.09;5501053;25;44315;-58
2024/04/10 09:19:15;;;;;;;;;4.75;1.00;;;;;13.40;56.26;102410.38;5503503;25;43861;-57
2024/04/10 09:21:42;;;;;;;;;6.00;2.00;;;;;13.36;56.06;102406.00;5504191;25;43964;-57
2024/04/10 09:24:13;;;;;;;;;5.25;1.50;;;;;13.30;55.74;102413.94;5502014;25;45730;-57
2024/04/10 09:26:41;;;;;;;;;4.50;2.25;;;;;13.27;56.10;102409.56;5504380;25;43829;-59
2024/04/10 09:29:12;;;;;;;;;4.00;1.25;;;;;13.24;56.30;102416.63;5504652;25;43770;-58
2024/04/10 09:31:38;;;;;;;;;5.75;3.25;;;;;13.20;55.84;102409.69;5502230;25;43819;-58
2024/04/10 09:34:04;;;;;;;;;5.00;3.75;;;;;13.21;56.61;102409.66;5471239;25;44822;-58
2024/04/10 09:36:33;;;;;;;;;7.00;4.25;;;;;13.24;56.20;102406.13;5439627;25;44485;-59
2024/04/10 09:39:05;;;;;;;;;4.50;4.00;;;;;13.23;55.07;102407.03;5472315;25;43812;-59
2024/04/10 09:41:34;;;;;;;;;3.50;1.00;;;;;13.39;55.51;102418.25;5502851;25;43993;-58
2024/04/10 09:44:00;;;;;;;;;6.00;2.50;;;;;13.47;54.92;102414.66;5470813;25;45525;-59
2024/04/10 09:46:34;;;;;;;;;12.50;11.50;;;;;13.58;54.76;102421.53;5470766;25;54110;-56
2024/04/10 09:49:08;;;;;;;;;9.75;9.25;;;;;13.61;53.38;102424.97;5502433;25;43849;-56
2024/04/10 09:51:39;;;;;;;;;17.00;9.25;;;;;13.66;54.01;102425.78;5503476;25;43763;-56
2024/04/10 09:54:11;;;;;;;;;7.25;3.00;;;;;13.80;53.59;102427.41;5470967;25;46851;-53
2024/04/10 09:56:38;;;;;;;;;4.50;2.75;;;;;13.87;53.89;102423.78;5503953;25;43891;-59
2024/04/10 09:59:09;;;;;;;;;2.50;2.50;;;;;13.97;52.88;102435.94;5470301;25;43909;-57
2024/04/10 10:01:37;;;;;;;;;1.75;1.00;;;;;14.03;53.18;102417.41;5502437;25;43994;-56
2024/04/10 10:04:02;;;;;;;;;2.75;1.25;;;;;14.23;53.12;102432.91;5513950;25;43995;-56
2024/04/10 10:06:28;;;;;;;;;1.50;1.00;;;;;14.41;52.05;102430.88;5503892;25;44315;-57
2024/04/10 10:08:54;;;;;;;;;6.75;2.75;;;;;14.57;51.78;102432.41;5502441;25;43978;-58
2024/04/10 10:11:20;;;;;;;;;5.50;2.75;;;;;14.73;51.06;102432.16;5475944;25;43910;-56
2024/04/10 10:13:59;;;;;;;;;6.00;4.00;;;;;14.96;51.42;102429.09;5470383;25;43970;-60
2024/04/10 10:16:27;;;;;;;;;2.00;1.25;;;;;15.12;50.38;102433.22;5503057;25;43710;-58
2024/04/10 10:18:55;;;;;;;;;14.00;8.00;;;;;15.17;49.07;102433.13;5440291;25;45437;-58
2024/04/10 10:21:21;;;;;;;;;4.00;1.75;;;;;15.22;49.36;102433.03;5468801;25;44070;-56
2024/04/10 10:23:55;;;;;;;;;5.00;2.00;;;;;15.23;49.28;102432.13;5500146;25;44020;-58
2024/04/10 10:26:20;;;;;;;;;6.00;1.00;;;;;15.24;49.12;102431.25;5502859;25;43760;-56
2024/04/10 10:28:45;;;;;;;;;1.75;0.50;;;;;15.30;48.58;102431.13;5501612;25;68082;-58
2024/04/10 10:31:14;;;;;;;;;7.00;1.00;;;;;15.33;47.65;102429.31;5501637;25;43732;-56
2024/04/10 10:33:41;;;;;;;;;5.00;4.00;;;;;15.39;46.75;102423.03;5487507;25;43928;-60
2024/04/10 10:36:07;;;;;;;;;4.75;2.50;;;;;15.48;47.90;102424.63;5501396;25;44345;-57
2024/04/10 10:38:32;;;;;;;;;4.50;3.00;;;;;15.59;47.08;102424.41;5460235;25;43919;-57
2024/04/10 10:41:08;;;;;;;;;5.25;4.25;;;;;15.78;46.82;102427.56;5500752;25;47551;-59
2024/04/10 10:43:33;;;;;;;;;1.50;1.00;;;;;15.99;46.48;102416.50;5470176;25;44763;-52
2024/04/10 10:45:59;;;;;;;;;1.50;1.00;;;;;16.16;46.86;102424.03;5471347;25;44095;-54
2024/04/10 10:48:26;;;;;;;;;1.75;1.75;;;;;16.22;46.43;102421.25;5502606;25;56248;-57
2024/04/10 10:50:55;;;;;;;;;3.00;1.00;;;;;16.26;46.64;102422.06;5495668;25;43835;-58
2024/04/10 10:53:22;;;;;;;;;8.50;4.00;;;;;16.28;45.64;102425.53;5470468;25;43919;-60
2024/04/10 10:55:52;;;;;;;;;5.00;4.00;;;;;16.32;45.29;102419.25;5469316;25;43933;-56
2024/04/10 10:58:17;;;;;;;;;4.75;1.50;;;;;16.36;45.04;102430.63;5469907;25;43679;-56
2024/04/10 11:00:42;;;;;;;;;2.00;2.00;;;;;16.41;44.96;102426.94;5525415;25;59878;-53
2024/04/10 11:03:10;;;;;;;;;3.50;1.75;;;;;16.57;44.47;102435.38;5501225;25;74163;-57
2024/04/10 11:05:36;;;;;;;;;4.00;2.00;;;;;16.79;45.39;102427.78;5517905;25;43927;-48
2024/04/10 11:08:02;;;;;;;;;3.50;1.50;;;;;16.99;43.80;102435.19;5466650;25;43943;-48
2024/04/10 11:10:27;;;;;;;;;1.75;1.50;;;;;17.19;43.10;102418.81;5507548;25;44156;-49
2024/04/10 11:13:07;;;;;;;;;0.00;0.00;;;;;17.31;42.24;102420.22;5523797;25;43986;-48
2024/04/10 11:15:46;;;;;;;;;3.75;2.00;;;;;17.37;43.47;102425.38;5526066;25;44315;-51
2024/04/10 11:18:18;;;;;;;;;1.75;1.00;;;;;17.34;42.67;102421.94;5467928;25;44053;-48
2024/04/10 11:20:47;;;;;;;;;4.25;1.50;;;;;17.23;42.27;102417.81;5507137;25;43829;-56
2024/04/10 11:23:13;;;;;;;;;1.00;1.00;;;;;17.25;43.33;102413.34;5515867;25;44022;-55
2024/04/10 11:25:38;;;;;;;;;3.00;1.50;;;;;17.26;43.23;102414.19;5468185;25;43981;-60
2024/04/10 11:28:04;;;;;;;;;1.25;0.50;;;;;17.20;41.87;102415.25;5501463;25;44366;-61